Elin Poseidon — SVAZ2 — position and weather

sailwx.info

Track history (hours):
 
Tides and Currents Weather Stations Pressure Air Temp Water Temp Dewpoint Dewpoint Depression Visibility Wind Speed Wind Dir Waves Ship Positions

Elin Poseidon

Last reported at 2018-Apr-26 05:48 UTC. Time now 2018-Apr-26 11:45 UTC.
Position N 41°00' E 025°08'.

Length 92 m; draft 4.8 m.

Type: Tanker. MMSI: 241006000.

Date/timePositionNaut miles runAvg speedWind from/ knotsBaromVisibWave heightAir tempDewpointWater temp
2018-Apr-26 05:48N 41°00' E 025°08'1 2.8
2018-Apr-26 05:31N 40°60' E 025°07'5 9.4
2018-Apr-26 04:59N 40°55' E 025°04'511.8
2018-Apr-26 04:31N 40°50' E 025°00'612.5
2018-Apr-26 04:01N 40°45' E 024°56'713.1
2018-Apr-26 03:31N 40°39' E 024°52'811.8
2018-Apr-26 02:52N 40°32' E 024°48'412.1
2018-Apr-26 02:30N 40°29' E 024°45'612.0
2018-Apr-26 02:01N 40°24' E 024°41'612.2
2018-Apr-26 01:30N 40°18' E 024°37'612.4
2018-Apr-26 01:00N 40°13' E 024°33'611.7
2018-Apr-26 00:30N 40°08' E 024°30'611.4
2018-Apr-26 00:00N 40°03' E 024°25'611.8
2018-Apr-25 23:28N 39°58' E 024°20'611.9
2018-Apr-25 23:00N 39°54' E 024°15'612.4
2018-Apr-25 22:31N 39°50' E 024°09'612.6
2018-Apr-25 22:00N 39°45' E 024°04'912.6
2018-Apr-25 21:15N 39°38' E 023°56'312.6
2018-Apr-25 21:01N 39°36' E 023°53'118 3.9
2018-Apr-24 14:28N 37°37' E 023°60'511.8
2018-Apr-24 14:00N 37°38' E 023°53'611.7
2018-Apr-24 13:30N 37°39' E 023°45'510.5
2018-Apr-24 13:00N 37°43' E 023°41'611.6
2018-Apr-24 12:30N 37°48' E 023°38'510.8
2018-Apr-24 12:00N 37°54' E 023°37'4 8.1
2018-Apr-24 11:30N 37°57' E 023°34'4 8.3
2018-Apr-24 11:00N 38°01' E 023°32'1 1.8
2018-Apr-24 10:29N 38°02' E 023°32'0 0.0
2018-Apr-24 09:59N 38°02' E 023°32'0 0.0
2018-Apr-24 09:29N 38°02' E 023°32'0 0.0
2018-Apr-24 08:59N 38°02' E 023°32'0 0.0
2018-Apr-24 08:29N 38°02' E 023°32'0 0.1
2018-Apr-24 07:58N 38°02' E 023°32'0 0.2
2018-Apr-24 07:30N 38°02' E 023°32'3 5.7
2018-Apr-24 07:00N 38°02' E 023°36'0 0.2
2018-Apr-24 06:30N 38°02' E 023°36'0 0.0
2018-Apr-24 06:00N 38°02' E 023°36'0 0.0
2018-Apr-24 05:30N 38°02' E 023°36'0 0.0
2018-Apr-24 05:00N 38°02' E 023°36'0 0.0
2018-Apr-24 04:18N 38°02' E 023°36'0 0.0
2018-Apr-24 03:57N 38°02' E 023°36'0 0.0
2018-Apr-24 03:30N 38°02' E 023°36'0 0.0
2018-Apr-24 02:57N 38°02' E 023°36'0 0.0
2018-Apr-24 02:29N 38°02' E 023°36'0 0.0
2018-Apr-24 01:47N 38°02' E 023°36'0 0.0
2018-Apr-24 00:14N 38°02' E 023°36'0 0.0
2018-Apr-23 19:02N 38°02' E 023°36'0 0.0
2018-Apr-23 18:38N 38°02' E 023°36'0 0.0
2018-Apr-23 18:15N 38°02' E 023°36'0 0.7
2018-Apr-23 18:00N 38°02' E 023°36'3 6.5
2018-Apr-23 17:30N 38°01' E 023°32'510.8
2018-Apr-23 17:00N 37°59' E 023°25'4 7.9
2018-Apr-23 16:30N 37°56' E 023°21'611.4
2018-Apr-23 16:00N 37°55' E 023°14'611.0
2018-Apr-23 15:30N 37°54' E 023°08'510.0
2018-Apr-23 15:00N 37°55' E 023°01'3 5.2
2018-Apr-23 14:24N 37°57' E 022°58'1 3.1
2018-Apr-23 14:00N 37°58' E 022°57'3 6.5
2018-Apr-23 13:30N 37°59' E 022°53'611.6
2018-Apr-23 13:00N 38°02' E 022°47'612.1
2018-Apr-23 12:28N 38°05' E 022°40'  
2018-Apr-20 11:24N 38°04' E 022°42'512.0
2018-Apr-20 10:57N 38°02' E 022°48'511.1
2018-Apr-20 10:30N 37°59' E 022°54'4 7.9
2018-Apr-20 10:00N 37°57' E 022°58'2 3.5
2018-Apr-20 09:23N 37°55' E 023°00'1 3.5
2018-Apr-20 09:00N 37°54' E 023°01'4 7.1
2018-Apr-20 08:30N 37°54' E 023°06'510.9
2018-Apr-20 08:00N 37°55' E 023°13'611.1
2018-Apr-20 07:30N 37°56' E 023°20'510.5
2018-Apr-20 07:00N 37°58' E 023°26'4 7.6
2018-Apr-20 06:30N 38°01' E 023°29'5 9.5
2018-Apr-20 06:00N 38°01' E 023°35'0 0.5
2018-Apr-20 05:20N 38°01' E 023°36'0 0.0
2018-Apr-20 04:59N 38°01' E 023°36'0 0.0
2018-Apr-20 04:29N 38°01' E 023°36'0 0.0
2018-Apr-20 03:59N 38°01' E 023°36'0 0.0
2018-Apr-20 03:29N 38°01' E 023°36'0 0.0
2018-Apr-20 02:59N 38°01' E 023°36'0 0.0
2018-Apr-20 02:17N 38°01' E 023°36'0 0.0
2018-Apr-20 01:56N 38°01' E 023°36'0 0.0
2018-Apr-20 01:29N 38°01' E 023°36'0 0.0
2018-Apr-20 00:59N 38°01' E 023°36'0 0.0
2018-Apr-20 00:29N 38°01' E 023°36'0 0.0
2018-Apr-19 23:56N 38°01' E 023°36'0 0.0
2018-Apr-19 23:29N 38°01' E 023°36'0 0.0
2018-Apr-19 22:59N 38°01' E 023°36'0 0.0
2018-Apr-19 22:26N 38°01' E 023°36'0 0.0
2018-Apr-19 21:59N 38°01' E 023°36'0 0.0
2018-Apr-19 21:14N 38°01' E 023°36'0 0.0
2018-Apr-19 20:59N 38°01' E 023°36'0 0.0
2018-Apr-19 20:23N 38°01' E 023°36'0 0.0
2018-Apr-19 19:59N 38°01' E 023°36'0 0.0
2018-Apr-19 19:29N 38°01' E 023°36'0 0.0
2018-Apr-19 18:50N 38°01' E 023°36'0 0.0
2018-Apr-19 18:29N 38°01' E 023°36'0 0.0
2018-Apr-19 17:56N 38°01' E 023°36'0 0.0
2018-Apr-19 17:26N 38°01' E 023°36'0 0.0
2018-Apr-19 16:50N 38°01' E 023°36'0 0.0
2018-Apr-19 16:26N 38°01' E 023°36'0 0.0
2018-Apr-19 15:56N 38°01' E 023°36'0 0.0
2018-Apr-19 15:20N 38°01' E 023°36'0 0.0
2018-Apr-19 14:59N 38°01' E 023°36'0 0.0
2018-Apr-19 14:29N 38°01' E 023°36'0 0.0
2018-Apr-19 13:47N 38°01' E 023°36'0 0.0
2018-Apr-19 13:29N 38°01' E 023°36'0 0.0
2018-Apr-19 12:56N 38°01' E 023°36'0 0.0
2018-Apr-19 05:48N 38°01' E 023°36'0 0.8
2018-Apr-19 05:29N 38°01' E 023°35'1 2.0
2018-Apr-19 05:00N 38°01' E 023°34'2 3.1
2018-Apr-19 04:30N 38°01' E 023°33'1 2.0
2018-Apr-19 04:00N 38°02' E 023°32'0 0.1
2018-Apr-19 03:29N 38°02' E 023°32'0 0.0
2018-Apr-19 02:59N 38°02' E 023°32'0 0.0
2018-Apr-19 02:29N 38°02' E 023°32'0 0.0
2018-Apr-19 01:59N 38°02' E 023°32'0 0.0
2018-Apr-19 01:29N 38°02' E 023°32'0 0.0
2018-Apr-19 00:59N 38°02' E 023°32'0 0.0
2018-Apr-19 00:29N 38°02' E 023°32'0 0.0
2018-Apr-18 23:59N 38°02' E 023°32'0 0.0
2018-Apr-18 23:29N 38°02' E 023°32'0 0.0
2018-Apr-18 22:59N 38°02' E 023°32'0 0.0
2018-Apr-18 22:29N 38°02' E 023°32'0 0.0
2018-Apr-18 21:56N 38°02' E 023°32'0 0.0
2018-Apr-18 21:29N 38°02' E 023°32'0 0.0
2018-Apr-18 20:56N 38°02' E 023°32'0 0.0
2018-Apr-18 20:26N 38°02' E 023°32'0 0.0
2018-Apr-18 19:59N 38°02' E 023°32'0 0.0
2018-Apr-18 19:29N 38°02' E 023°32'0 0.0
2018-Apr-18 18:59N 38°02' E 023°32'0 0.0
2018-Apr-18 18:20N 38°02' E 023°32'0 0.0
2018-Apr-18 17:59N 38°02' E 023°32'0 0.0
2018-Apr-18 17:29N 38°02' E 023°32'0 0.0
2018-Apr-18 16:59N 38°02' E 023°32'0 0.0
2018-Apr-18 16:29N 38°02' E 023°32'0 0.0
2018-Apr-18 15:59N 38°02' E 023°32'0 0.2
2018-Apr-18 15:29N 38°02' E 023°32'0 0.0
2018-Apr-18 14:59N 38°02' E 023°32'0 0.0
2018-Apr-18 14:29N 38°02' E 023°32'0 0.0
2018-Apr-18 13:59N 38°02' E 023°32'0 0.0
2018-Apr-18 13:29N 38°02' E 023°32'0 0.0
2018-Apr-18 12:59N 38°02' E 023°32'0 0.0
2018-Apr-18 12:29N 38°02' E 023°32'0 0.2
2018-Apr-18 11:53N 38°02' E 023°32'0 0.0
2018-Apr-18 11:26N 38°02' E 023°32'0 0.0
2018-Apr-18 10:35N 38°02' E 023°32'0 0.1
2018-Apr-18 10:26N 38°02' E 023°32'0 0.0
2018-Apr-18 09:56N 38°02' E 023°32'0 0.0
2018-Apr-18 09:26N 38°02' E 023°32'0 0.0
2018-Apr-18 08:56N 38°02' E 023°32'0 0.0
2018-Apr-18 08:17N 38°02' E 023°32'0 0.0
2018-Apr-18 07:56N 38°02' E 023°32'0 0.0
2018-Apr-18 07:19N 38°02' E 023°32'0 0.0
2018-Apr-18 06:59N 38°02' E 023°32'0 0.0
2018-Apr-18 06:29N 38°02' E 023°32'0 0.0
2018-Apr-18 04:55N 38°02' E 023°32'0 0.1
2018-Apr-18 04:28N 38°02' E 023°32'0 0.1
2018-Apr-18 03:58N 38°02' E 023°32'0 0.0
2018-Apr-18 03:28N 38°02' E 023°32'0 0.0
2018-Apr-18 02:58N 38°02' E 023°32'0 0.0
2018-Apr-18 02:28N 38°02' E 023°32'0 0.0
2018-Apr-18 01:58N 38°02' E 023°32'0 0.0
2018-Apr-18 01:25N 38°02' E 023°32'0 0.0
2018-Apr-18 00:55N 38°02' E 023°32'0 0.0
2018-Apr-18 00:28N 38°02' E 023°32'0 0.0
2018-Apr-17 23:55N 38°02' E 023°32'0 0.0
2018-Apr-17 23:28N 38°02' E 023°32'0 0.0
2018-Apr-17 22:52N 38°02' E 023°32'0 0.0
2018-Apr-17 22:19N 38°02' E 023°32'0 0.1
2018-Apr-17 21:55N 38°02' E 023°32'0 0.1
2018-Apr-17 21:25N 38°02' E 023°32'0 0.1
2018-Apr-17 20:55N 38°02' E 023°32'0 0.1
2018-Apr-17 20:28N 38°02' E 023°32'0 0.0
2018-Apr-17 19:58N 38°02' E 023°32'0 0.1
2018-Apr-17 19:22N 38°02' E 023°32'0 0.0
2018-Apr-17 18:58N 38°02' E 023°32'0 0.0
2018-Apr-17 18:19N 38°02' E 023°32'0 0.0
2018-Apr-17 17:40N 38°02' E 023°32'0 0.0
2018-Apr-17 17:22N 38°02' E 023°32'0 0.0
2018-Apr-17 16:46N 38°02' E 023°32'0 0.0
2018-Apr-17 16:28N 38°02' E 023°32'0 0.0
2018-Apr-17 15:58N 38°02' E 023°32'0 0.0
2018-Apr-17 15:25N 38°02' E 023°32'0 0.0
2018-Apr-17 14:55N 38°02' E 023°32'0 0.0
2018-Apr-17 14:25N 38°02' E 023°32'0 0.0
2018-Apr-17 13:58N 38°02' E 023°32'0 0.0
2018-Apr-17 13:25N 38°02' E 023°32'0 0.0
2018-Apr-17 12:58N 38°02' E 023°32'0 0.0
2018-Apr-17 12:25N 38°02' E 023°32'0 0.1
2018-Apr-17 11:58N 38°02' E 023°32'0 0.0
2018-Apr-17 11:28N 38°02' E 023°32'0 0.0
2018-Apr-17 10:58N 38°02' E 023°32'0 0.0
2018-Apr-17 10:28N 38°02' E 023°32'0 0.0
2018-Apr-17 09:58N 38°02' E 023°32'0 0.0
2018-Apr-17 09:28N 38°02' E 023°32'0 0.0
2018-Apr-17 08:58N 38°02' E 023°32'0 0.0
2018-Apr-17 08:28N 38°02' E 023°32'0 0.1
2018-Apr-17 07:58N 38°02' E 023°32'0 0.0
2018-Apr-17 07:28N 38°02' E 023°32'0 0.1
2018-Apr-17 06:46N 38°02' E 023°32'0 0.1
2018-Apr-17 06:22N 38°02' E 023°32'0 0.1
2018-Apr-17 05:58N 38°02' E 023°32'0 0.0
2018-Apr-17 05:28N 38°02' E 023°32'0 0.0
2018-Apr-17 04:58N 38°02' E 023°32'0 0.0
2018-Apr-17 04:28N 38°02' E 023°32'0 0.0
2018-Apr-17 03:58N 38°02' E 023°32'0 0.0
2018-Apr-17 03:28N 38°02' E 023°32'0 0.0
2018-Apr-17 02:58N 38°02' E 023°32'0 0.0
2018-Apr-17 02:28N 38°02' E 023°32'0 0.1
2018-Apr-17 01:58N 38°02' E 023°32'0 0.1
2018-Apr-17 01:28N 38°02' E 023°32'0 0.0
2018-Apr-17 00:55N 38°02' E 023°32'0 0.0
2018-Apr-17 00:19N 38°02' E 023°32'0 0.0
2018-Apr-16 23:49N 38°02' E 023°32'0 0.0
2018-Apr-16 23:28N 38°02' E 023°32'0 0.0
2018-Apr-16 22:58N 38°02' E 023°32'0 1.0
2018-Apr-16 22:30N 38°02' E 023°31'510.2
2018-Apr-16 22:00N 37°59' E 023°25'4 8.6
2018-Apr-16 21:30N 37°56' E 023°23'510.1
2018-Apr-16 21:00N 37°52' E 023°27'611.9
2018-Apr-16 20:30N 37°50' E 023°34'510.7
2018-Apr-16 20:00N 37°49' E 023°40'612.1
2018-Apr-16 19:30N 37°43' E 023°44'611.8
2018-Apr-16 19:00N 37°39' E 023°49'  
Track history (hours):
 
Tides and Currents Weather Stations Pressure Air Temp Water Temp Dewpoint Dewpoint Depression Visibility Wind Speed Wind Dir Waves Ship Positions

Elin Poseidon

Last reported at 2018-Apr-26 05:48 UTC. Time now 2018-Apr-26 11:45 UTC.
Position N 41°00' E 025°08'.

Length 92 m; draft 4.8 m.

Type: Tanker. MMSI: 241006000.

Date/timePositionNaut miles runAvg speedWind from/ knotsBaromVisibWave heightAir tempDewpointWater temp
2018-Apr-26 05:48N 41°00' E 025°08'1 2.8
2018-Apr-26 05:31N 40°60' E 025°07'5 9.4
2018-Apr-26 04:59N 40°55' E 025°04'511.8
2018-Apr-26 04:31N 40°50' E 025°00'612.5
2018-Apr-26 04:01N 40°45' E 024°56'713.1
2018-Apr-26 03:31N 40°39' E 024°52'811.8
2018-Apr-26 02:52N 40°32' E 024°48'412.1
2018-Apr-26 02:30N 40°29' E 024°45'612.0
2018-Apr-26 02:01N 40°24' E 024°41'612.2
2018-Apr-26 01:30N 40°18' E 024°37'612.4
2018-Apr-26 01:00N 40°13' E 024°33'611.7
2018-Apr-26 00:30N 40°08' E 024°30'611.4
2018-Apr-26 00:00N 40°03' E 024°25'611.8
2018-Apr-25 23:28N 39°58' E 024°20'611.9
2018-Apr-25 23:00N 39°54' E 024°15'612.4
2018-Apr-25 22:31N 39°50' E 024°09'612.6
2018-Apr-25 22:00N 39°45' E 024°04'912.6
2018-Apr-25 21:15N 39°38' E 023°56'312.6
2018-Apr-25 21:01N 39°36' E 023°53'118 3.9
2018-Apr-24 14:28N 37°37' E 023°60'511.8
2018-Apr-24 14:00N 37°38' E 023°53'611.7
2018-Apr-24 13:30N 37°39' E 023°45'510.5
2018-Apr-24 13:00N 37°43' E 023°41'611.6
2018-Apr-24 12:30N 37°48' E 023°38'510.8
2018-Apr-24 12:00N 37°54' E 023°37'4 8.1
2018-Apr-24 11:30N 37°57' E 023°34'4 8.3
2018-Apr-24 11:00N 38°01' E 023°32'1 1.8
2018-Apr-24 10:29N 38°02' E 023°32'0 0.0
2018-Apr-24 09:59N 38°02' E 023°32'0 0.0
2018-Apr-24 09:29N 38°02' E 023°32'0 0.0
2018-Apr-24 08:59N 38°02' E 023°32'0 0.0
2018-Apr-24 08:29N 38°02' E 023°32'0 0.1
2018-Apr-24 07:58N 38°02' E 023°32'0 0.2
2018-Apr-24 07:30N 38°02' E 023°32'3 5.7
2018-Apr-24 07:00N 38°02' E 023°36'0 0.2
2018-Apr-24 06:30N 38°02' E 023°36'0 0.0
2018-Apr-24 06:00N 38°02' E 023°36'0 0.0
2018-Apr-24 05:30N 38°02' E 023°36'0 0.0
2018-Apr-24 05:00N 38°02' E 023°36'0 0.0
2018-Apr-24 04:18N 38°02' E 023°36'0 0.0
2018-Apr-24 03:57N 38°02' E 023°36'0 0.0
2018-Apr-24 03:30N 38°02' E 023°36'0 0.0
2018-Apr-24 02:57N 38°02' E 023°36'0 0.0
2018-Apr-24 02:29N 38°02' E 023°36'0 0.0
2018-Apr-24 01:47N 38°02' E 023°36'0 0.0
2018-Apr-24 00:14N 38°02' E 023°36'0 0.0
2018-Apr-23 19:02N 38°02' E 023°36'0 0.0
2018-Apr-23 18:38N 38°02' E 023°36'0 0.0
2018-Apr-23 18:15N 38°02' E 023°36'0 0.7
2018-Apr-23 18:00N 38°02' E 023°36'3 6.5
2018-Apr-23 17:30N 38°01' E 023°32'510.8
2018-Apr-23 17:00N 37°59' E 023°25'4 7.9
2018-Apr-23 16:30N 37°56' E 023°21'611.4
2018-Apr-23 16:00N 37°55' E 023°14'611.0
2018-Apr-23 15:30N 37°54' E 023°08'510.0
2018-Apr-23 15:00N 37°55' E 023°01'3 5.2
2018-Apr-23 14:24N 37°57' E 022°58'1 3.1
2018-Apr-23 14:00N 37°58' E 022°57'3 6.5
2018-Apr-23 13:30N 37°59' E 022°53'611.6
2018-Apr-23 13:00N 38°02' E 022°47'612.1
2018-Apr-23 12:28N 38°05' E 022°40'  
2018-Apr-20 11:24N 38°04' E 022°42'512.0
2018-Apr-20 10:57N 38°02' E 022°48'511.1
2018-Apr-20 10:30N 37°59' E 022°54'4 7.9
2018-Apr-20 10:00N 37°57' E 022°58'2 3.5
2018-Apr-20 09:23N 37°55' E 023°00'1 3.5
2018-Apr-20 09:00N 37°54' E 023°01'4 7.1
2018-Apr-20 08:30N 37°54' E 023°06'510.9
2018-Apr-20 08:00N 37°55' E 023°13'611.1
2018-Apr-20 07:30N 37°56' E 023°20'510.5
2018-Apr-20 07:00N 37°58' E 023°26'4 7.6
2018-Apr-20 06:30N 38°01' E 023°29'5 9.5
2018-Apr-20 06:00N 38°01' E 023°35'0 0.5
2018-Apr-20 05:20N 38°01' E 023°36'0 0.0
2018-Apr-20 04:59N 38°01' E 023°36'0 0.0
2018-Apr-20 04:29N 38°01' E 023°36'0 0.0
2018-Apr-20 03:59N 38°01' E 023°36'0 0.0
2018-Apr-20 03:29N 38°01' E 023°36'0 0.0
2018-Apr-20 02:59N 38°01' E 023°36'0 0.0
2018-Apr-20 02:17N 38°01' E 023°36'0 0.0
2018-Apr-20 01:56N 38°01' E 023°36'0 0.0
2018-Apr-20 01:29N 38°01' E 023°36'0 0.0
2018-Apr-20 00:59N 38°01' E 023°36'0 0.0
2018-Apr-20 00:29N 38°01' E 023°36'0 0.0
2018-Apr-19 23:56N 38°01' E 023°36'0 0.0
2018-Apr-19 23:29N 38°01' E 023°36'0 0.0
2018-Apr-19 22:59N 38°01' E 023°36'0 0.0
2018-Apr-19 22:26N 38°01' E 023°36'0 0.0
2018-Apr-19 21:59N 38°01' E 023°36'0 0.0
2018-Apr-19 21:14N 38°01' E 023°36'0 0.0
2018-Apr-19 20:59N 38°01' E 023°36'0 0.0
2018-Apr-19 20:23N 38°01' E 023°36'0 0.0
2018-Apr-19 19:59N 38°01' E 023°36'0 0.0
2018-Apr-19 19:29N 38°01' E 023°36'0 0.0
2018-Apr-19 18:50N 38°01' E 023°36'0 0.0
2018-Apr-19 18:29N 38°01' E 023°36'0 0.0
2018-Apr-19 17:56N 38°01' E 023°36'0 0.0
2018-Apr-19 17:26N 38°01' E 023°36'0 0.0
2018-Apr-19 16:50N 38°01' E 023°36'0 0.0
2018-Apr-19 16:26N 38°01' E 023°36'0 0.0
2018-Apr-19 15:56N 38°01' E 023°36'0 0.0
2018-Apr-19 15:20N 38°01' E 023°36'0 0.0
2018-Apr-19 14:59N 38°01' E 023°36'0 0.0
2018-Apr-19 14:29N 38°01' E 023°36'0 0.0
2018-Apr-19 13:47N 38°01' E 023°36'0 0.0
2018-Apr-19 13:29N 38°01' E 023°36'0 0.0
2018-Apr-19 12:56N 38°01' E 023°36'0 0.0
2018-Apr-19 05:48N 38°01' E 023°36'0 0.8
2018-Apr-19 05:29N 38°01' E 023°35'1 2.0
2018-Apr-19 05:00N 38°01' E 023°34'2 3.1
2018-Apr-19 04:30N 38°01' E 023°33'1 2.0
2018-Apr-19 04:00N 38°02' E 023°32'0 0.1
2018-Apr-19 03:29N 38°02' E 023°32'0 0.0
2018-Apr-19 02:59N 38°02' E 023°32'0 0.0
2018-Apr-19 02:29N 38°02' E 023°32'0 0.0
2018-Apr-19 01:59N 38°02' E 023°32'0 0.0
2018-Apr-19 01:29N 38°02' E 023°32'0 0.0
2018-Apr-19 00:59N 38°02' E 023°32'0 0.0
2018-Apr-19 00:29N 38°02' E 023°32'0 0.0
2018-Apr-18 23:59N 38°02' E 023°32'0 0.0
2018-Apr-18 23:29N 38°02' E 023°32'0 0.0
2018-Apr-18 22:59N 38°02' E 023°32'0 0.0
2018-Apr-18 22:29N 38°02' E 023°32'0 0.0
2018-Apr-18 21:56N 38°02' E 023°32'0 0.0
2018-Apr-18 21:29N 38°02' E 023°32'0 0.0
2018-Apr-18 20:56N 38°02' E 023°32'0 0.0
2018-Apr-18 20:26N 38°02' E 023°32'0 0.0
2018-Apr-18 19:59N 38°02' E 023°32'0 0.0
2018-Apr-18 19:29N 38°02' E 023°32'0 0.0
2018-Apr-18 18:59N 38°02' E 023°32'0 0.0
2018-Apr-18 18:20N 38°02' E 023°32'0 0.0
2018-Apr-18 17:59N 38°02' E 023°32'0 0.0
2018-Apr-18 17:29N 38°02' E 023°32'0 0.0
2018-Apr-18 16:59N 38°02' E 023°32'0 0.0
2018-Apr-18 16:29N 38°02' E 023°32'0 0.0
2018-Apr-18 15:59N 38°02' E 023°32'0 0.2
2018-Apr-18 15:29N 38°02' E 023°32'0 0.0
2018-Apr-18 14:59N 38°02' E 023°32'0 0.0
2018-Apr-18 14:29N 38°02' E 023°32'0 0.0
2018-Apr-18 13:59N 38°02' E 023°32'0 0.0
2018-Apr-18 13:29N 38°02' E 023°32'0 0.0
2018-Apr-18 12:59N 38°02' E 023°32'0 0.0
2018-Apr-18 12:29N 38°02' E 023°32'0 0.2
2018-Apr-18 11:53N 38°02' E 023°32'0 0.0
2018-Apr-18 11:26N 38°02' E 023°32'0 0.0
2018-Apr-18 10:35N 38°02' E 023°32'0 0.1
2018-Apr-18 10:26N 38°02' E 023°32'0 0.0
2018-Apr-18 09:56N 38°02' E 023°32'0 0.0
2018-Apr-18 09:26N 38°02' E 023°32'0 0.0
2018-Apr-18 08:56N 38°02' E 023°32'0 0.0
2018-Apr-18 08:17N 38°02' E 023°32'0 0.0
2018-Apr-18 07:56N 38°02' E 023°32'0 0.0
2018-Apr-18 07:19N 38°02' E 023°32'0 0.0
2018-Apr-18 06:59N 38°02' E 023°32'0 0.0
2018-Apr-18 06:29N 38°02' E 023°32'0 0.0
2018-Apr-18 04:55N 38°02' E 023°32'0 0.1
2018-Apr-18 04:28N 38°02' E 023°32'0 0.1
2018-Apr-18 03:58N 38°02' E 023°32'0 0.0
2018-Apr-18 03:28N 38°02' E 023°32'0 0.0
2018-Apr-18 02:58N 38°02' E 023°32'0 0.0
2018-Apr-18 02:28N 38°02' E 023°32'0 0.0
2018-Apr-18 01:58N 38°02' E 023°32'0 0.0
2018-Apr-18 01:25N 38°02' E 023°32'0 0.0
2018-Apr-18 00:55N 38°02' E 023°32'0 0.0
2018-Apr-18 00:28N 38°02' E 023°32'0 0.0
2018-Apr-17 23:55N 38°02' E 023°32'0 0.0
2018-Apr-17 23:28N 38°02' E 023°32'0 0.0
2018-Apr-17 22:52N 38°02' E 023°32'0 0.0
2018-Apr-17 22:19N 38°02' E 023°32'0 0.1
2018-Apr-17 21:55N 38°02' E 023°32'0 0.1
2018-Apr-17 21:25N 38°02' E 023°32'0 0.1
2018-Apr-17 20:55N 38°02' E 023°32'0 0.1
2018-Apr-17 20:28N 38°02' E 023°32'0 0.0
2018-Apr-17 19:58N 38°02' E 023°32'0 0.1
2018-Apr-17 19:22N 38°02' E 023°32'0 0.0
2018-Apr-17 18:58N 38°02' E 023°32'0 0.0
2018-Apr-17 18:19N 38°02' E 023°32'0 0.0
2018-Apr-17 17:40N 38°02' E 023°32'0 0.0
2018-Apr-17 17:22N 38°02' E 023°32'0 0.0
2018-Apr-17 16:46N 38°02' E 023°32'0 0.0
2018-Apr-17 16:28N 38°02' E 023°32'0 0.0
2018-Apr-17 15:58N 38°02' E 023°32'0 0.0
2018-Apr-17 15:25N 38°02' E 023°32'0 0.0
2018-Apr-17 14:55N 38°02' E 023°32'0 0.0
2018-Apr-17 14:25N 38°02' E 023°32'0 0.0
2018-Apr-17 13:58N 38°02' E 023°32'0 0.0
2018-Apr-17 13:25N 38°02' E 023°32'0 0.0
2018-Apr-17 12:58N 38°02' E 023°32'0 0.0
2018-Apr-17 12:25N 38°02' E 023°32'0 0.1
2018-Apr-17 11:58N 38°02' E 023°32'0 0.0
2018-Apr-17 11:28N 38°02' E 023°32'0 0.0
2018-Apr-17 10:58N 38°02' E 023°32'0 0.0
2018-Apr-17 10:28N 38°02' E 023°32'0 0.0
2018-Apr-17 09:58N 38°02' E 023°32'0 0.0
2018-Apr-17 09:28N 38°02' E 023°32'0 0.0
2018-Apr-17 08:58N 38°02' E 023°32'0 0.0
2018-Apr-17 08:28N 38°02' E 023°32'0 0.1
2018-Apr-17 07:58N 38°02' E 023°32'0 0.0
2018-Apr-17 07:28N 38°02' E 023°32'0 0.1
2018-Apr-17 06:46N 38°02' E 023°32'0 0.1
2018-Apr-17 06:22N 38°02' E 023°32'0 0.1
2018-Apr-17 05:58N 38°02' E 023°32'0 0.0
2018-Apr-17 05:28N 38°02' E 023°32'0 0.0
2018-Apr-17 04:58N 38°02' E 023°32'0 0.0
2018-Apr-17 04:28N 38°02' E 023°32'0 0.0
2018-Apr-17 03:58N 38°02' E 023°32'0 0.0
2018-Apr-17 03:28N 38°02' E 023°32'0 0.0
2018-Apr-17 02:58N 38°02' E 023°32'0 0.0
2018-Apr-17 02:28N 38°02' E 023°32'0 0.1
2018-Apr-17 01:58N 38°02' E 023°32'0 0.1
2018-Apr-17 01:28N 38°02' E 023°32'0 0.0
2018-Apr-17 00:55N 38°02' E 023°32'0 0.0
2018-Apr-17 00:19N 38°02' E 023°32'0 0.0
2018-Apr-16 23:49N 38°02' E 023°32'0 0.0
2018-Apr-16 23:28N 38°02' E 023°32'0 0.0
2018-Apr-16 22:58N 38°02' E 023°32'0 1.0
2018-Apr-16 22:30N 38°02' E 023°31'510.2
2018-Apr-16 22:00N 37°59' E 023°25'4 8.6
2018-Apr-16 21:30N 37°56' E 023°23'510.1
2018-Apr-16 21:00N 37°52' E 023°27'611.9
2018-Apr-16 20:30N 37°50' E 023°34'510.7
2018-Apr-16 20:00N 37°49' E 023°40'612.1
2018-Apr-16 19:30N 37°43' E 023°44'611.8
2018-Apr-16 19:00N 37°39' E 023°49'  

Dump ship's entire track history